Time;durP1;ratioP1;P1;durP2;ratioP2;P2;SDS_P1;SDS_P2;PMS_P1;PMS_P2;Temp;Humidity;BMP_temperature;BMP_pressure;BME280_temperature;BME280_humidity;BME280_pressure;Samples;Min_cycle;Max_cycle;Signal;HPM_P1;HPM_P2
2022/12/31 00:00:37;;;;;;;54.75;28.17;;;;;;;3.40;74.29;98525.59;4968730;28;20031;-69
2022/12/31 00:03:07;;;;;;;57.72;27.30;;;;;;;3.43;74.40;98514.25;4989891;28;20031;-70
2022/12/31 00:05:33;;;;;;;55.78;28.00;;;;;;;3.46;73.63;98516.47;4968165;28;20027;-70
2022/12/31 00:08:00;;;;;;;55.35;29.27;;;;;;;3.46;74.15;98505.63;4967310;28;20025;-70
2022/12/31 00:10:26;;;;;;;56.80;29.23;;;;;;;3.49;74.45;98498.88;4968823;28;20069;-70
2022/12/31 00:12:51;;;;;;;57.50;29.50;;;;;;;3.49;74.36;98502.41;4968694;28;20050;-70
2022/12/31 00:15:17;;;;;;;58.63;29.02;;;;;;;3.51;74.06;98513.00;4968328;28;20022;-70
2022/12/31 00:17:42;;;;;;;60.13;31.52;;;;;;;3.52;73.79;98530.91;4968657;28;20019;-69
2022/12/31 00:20:08;;;;;;;54.03;28.23;;;;;;;3.51;74.89;98521.16;4968164;28;20027;-69
2022/12/31 00:22:33;;;;;;;57.20;30.00;;;;;;;3.49;74.33;98521.38;4967486;28;20122;-69
2022/12/31 00:24:59;;;;;;;54.28;27.58;;;;;;;3.50;74.76;98533.88;4967562;28;20069;-69
2022/12/31 00:27:24;;;;;;;51.97;27.00;;;;;;;3.51;74.24;98523.84;4967539;28;20833;-70
2022/12/31 00:29:49;;;;;;;52.70;27.38;;;;;;;3.53;73.77;98527.13;4966488;28;20027;-69
2022/12/31 00:32:15;;;;;;;61.05;30.75;;;;;;;3.55;74.40;98530.44;4975089;28;20030;-69
2022/12/31 00:34:40;;;;;;;52.17;26.45;;;;;;;3.57;74.57;98542.66;4968163;28;20395;-70
2022/12/31 00:37:05;;;;;;;48.88;25.38;;;;;;;3.60;74.79;98546.78;4966815;28;20524;-69
2022/12/31 00:39:31;;;;;;;50.47;25.77;;;;;;;3.65;74.22;98536.00;4966930;28;20034;-69
2022/12/31 00:41:56;;;;;;;47.08;23.80;;;;;;;3.70;74.39;98546.09;4988821;28;20047;-68
2022/12/31 00:44:21;;;;;;;46.35;23.52;;;;;;;3.75;74.71;98539.91;4967272;28;20037;-69
2022/12/31 00:46:47;;;;;;;42.70;22.98;;;;;;;3.80;74.84;98543.53;4966916;28;20037;-68
2022/12/31 00:49:13;;;;;;;42.00;21.80;;;;;;;3.85;74.86;98546.34;4967254;28;20108;-67
2022/12/31 00:51:38;;;;;;;40.88;21.77;;;;;;;3.94;74.60;98543.16;4968089;28;20019;-68
2022/12/31 00:54:04;;;;;;;39.72;19.67;;;;;;;4.01;74.88;98549.25;4967885;28;20104;-69
2022/12/31 00:56:30;;;;;;;37.20;19.15;;;;;;;4.08;74.78;98546.31;4967201;28;20092;-69
2022/12/31 00:58:57;;;;;;;34.53;17.33;;;;;;;4.15;74.63;98553.22;4971536;28;20038;-69
2022/12/31 01:01:26;;;;;;;37.50;19.17;;;;;;;4.24;75.54;98542.75;4966506;28;20038;-69
2022/12/31 01:03:55;;;;;;;36.13;19.02;;;;;;;4.33;75.65;98543.13;4973285;28;20023;-69
2022/12/31 01:06:20;;;;;;;39.03;19.55;;;;;;;4.40;75.14;98545.66;4966897;28;20025;-69
2022/12/31 01:08:50;;;;;;;34.55;17.98;;;;;;;4.47;75.01;98540.88;4967411;28;20027;-69
2022/12/31 01:11:22;;;;;;;32.75;16.80;;;;;;;4.56;75.56;98541.22;4968024;28;20039;-69
2022/12/31 01:13:55;;;;;;;29.58;17.02;;;;;;;4.62;75.54;98556.50;4967334;28;20030;-69
2022/12/31 01:16:23;;;;;;;32.25;15.88;;;;;;;4.68;75.66;98568.25;4967830;28;20126;-69
2022/12/31 01:18:49;;;;;;;31.48;15.32;;;;;;;4.76;75.99;98581.38;4968074;28;20114;-69
2022/12/31 01:21:16;;;;;;;28.65;14.45;;;;;;;4.83;75.46;98570.28;4968173;28;20038;-67
2022/12/31 01:23:42;;;;;;;27.35;13.30;;;;;;;4.91;76.03;98567.94;4969256;28;20023;-67
2022/12/31 01:26:09;;;;;;;26.45;14.05;;;;;;;5.00;75.71;98576.47;4968754;28;20025;-67
2022/12/31 01:28:35;;;;;;;25.33;13.18;;;;;;;5.10;75.81;98569.47;4969029;28;20027;-67
2022/12/31 01:31:06;;;;;;;24.92;13.50;;;;;;;5.18;76.07;98567.13;4969020;28;20026;-67
2022/12/31 01:33:32;;;;;;;23.60;13.32;;;;;;;5.26;76.23;98559.56;4967749;28;20027;-67
2022/12/31 01:36:13;;;;;;;23.15;13.43;;;;;;;5.32;76.25;98548.47;4967158;28;20057;-67
2022/12/31 01:38:39;;;;;;;25.98;14.40;;;;;;;5.40;75.68;98562.69;4968322;28;20054;-68
2022/12/31 01:41:05;;;;;;;25.25;13.55;;;;;;;5.45;75.93;98565.44;4968755;28;20042;-67
2022/12/31 01:43:42;;;;;;;25.83;14.35;;;;;;;5.49;75.45;98572.00;4968809;28;20102;-67
2022/12/31 01:46:09;;;;;;;25.67;13.35;;;;;;;5.54;75.38;98574.75;4968155;28;20033;-67
2022/12/31 01:48:35;;;;;;;24.35;13.57;;;;;;;5.58;75.95;98556.81;4967769;28;20031;-68
2022/12/31 01:51:01;;;;;;;25.92;14.15;;;;;;;5.63;75.83;98554.13;4966286;28;20018;-68
2022/12/31 01:53:27;;;;;;;26.60;14.77;;;;;;;5.69;75.69;98549.56;4968451;28;20029;-68
2022/12/31 01:55:56;;;;;;;26.10;13.82;;;;;;;5.72;75.98;98545.50;4976353;28;20106;-68
2022/12/31 01:58:35;;;;;;;27.38;15.30;;;;;;;5.75;75.34;98550.41;4967234;28;20042;-68
2022/12/31 02:01:01;;;;;;;24.98;13.10;;;;;;;5.78;75.80;98558.06;4966597;28;20035;-68
2022/12/31 02:03:28;;;;;;;24.92;13.02;;;;;;;5.79;75.76;98560.50;4966794;28;20041;-67
2022/12/31 02:06:00;;;;;;;26.50;13.52;;;;;;;5.84;75.71;98556.19;4968124;28;20022;-68
2022/12/31 02:08:26;;;;;;;23.73;12.38;;;;;;;5.88;75.56;98560.00;4968392;28;20109;-68
2022/12/31 02:10:52;;;;;;;27.42;14.07;;;;;;;5.91;75.95;98567.66;4967140;28;20394;-68
2022/12/31 02:13:17;;;;;;;27.90;13.43;;;;;;;5.92;75.62;98561.94;4968432;28;20027;-67
2022/12/31 02:16:04;;;;;;;25.98;12.82;;;;;;;5.94;76.11;98562.50;4968013;28;20595;-68
2022/12/31 02:18:59;;;;;;;24.00;12.40;;;;;;;5.95;75.97;98550.53;4969680;28;20045;-68
2022/12/31 02:21:38;;;;;;;23.40;12.30;;;;;;;5.99;76.21;98539.09;4967950;28;20490;-68
2022/12/31 02:24:40;;;;;;;21.40;11.93;;;;;;;5.99;75.81;98550.00;4968235;28;20034;-68
2022/12/31 02:27:24;;;;;;;23.08;12.45;;;;;;;6.01;76.37;98561.47;4967340;28;20582;-68
2022/12/31 02:30:09;;;;;;;23.35;12.80;;;;;;;6.02;76.28;98552.22;4967740;28;20026;-68
2022/12/31 02:32:54;;;;;;;25.33;13.13;;;;;;;6.02;76.83;98553.06;4967079;28;20475;-68
2022/12/31 02:35:36;;;;;;;24.60;13.55;;;;;;;6.05;76.75;98557.16;4965660;28;20084;-69
2022/12/31 02:38:12;;;;;;;21.73;12.45;;;;;;;6.05;77.05;98544.38;4967159;28;20087;-68
2022/12/31 02:40:39;;;;;;;18.95;10.73;;;;;;;6.07;76.93;98546.81;4966231;28;20483;-68
2022/12/31 02:43:04;;;;;;;18.98;11.45;;;;;;;6.08;76.48;98545.72;4966817;28;20728;-68
2022/12/31 02:45:38;;;;;;;24.70;14.30;;;;;;;6.09;76.90;98540.03;4967592;28;20019;-68
2022/12/31 02:48:49;;;;;;;26.92;14.05;;;;;;;6.08;76.79;98530.22;4967283;28;20145;-68
2022/12/31 02:51:23;;;;;;;26.02;12.57;;;;;;;6.09;76.78;98531.88;4961033;28;20049;-68
2022/12/31 02:54:14;;;;;;;21.75;11.90;;;;;;;6.07;76.69;98539.47;4966381;28;20093;-68
2022/12/31 02:56:50;;;;;;;24.85;13.27;;;;;;;6.10;76.97;98549.84;4964773;28;20022;-68
2022/12/31 03:02:18;;;;;;;19.02;9.65;;;;;;;6.13;76.76;98553.09;4965457;28;20037;-69
2022/12/31 03:04:49;;;;;;;16.88;10.73;;;;;;;6.13;76.74;98562.09;5012495;28;20034;-69
2022/12/31 03:07:22;;;;;;;18.48;9.82;;;;;;;6.14;77.14;98566.47;4962791;28;20434;-70
2022/12/31 03:09:47;;;;;;;19.77;10.55;;;;;;;6.18;77.32;98570.28;4963425;28;20033;-69
2022/12/31 03:14:58;;;;;;;20.52;11.55;;;;;;;6.23;77.38;98567.59;4964505;28;20042;-69
2022/12/31 03:17:24;;;;;;;20.98;11.00;;;;;;;6.27;77.49;98570.59;4965250;28;20387;-69
2022/12/31 03:22:39;;;;;;;14.90;9.05;;;;;;;6.34;77.42;98576.63;4967428;28;20077;-69
2022/12/31 03:27:59;;;;;;;18.48;11.55;;;;;;;6.40;76.76;98581.03;4965540;28;20092;-68
2022/12/31 03:30:25;;;;;;;17.90;11.05;;;;;;;6.43;77.27;98566.03;4963358;28;20630;-69
2022/12/31 03:32:52;;;;;;;16.13;9.82;;;;;;;6.46;76.84;98565.50;4966724;28;20035;-68
2022/12/31 03:35:19;;;;;;;19.15;10.23;;;;;;;6.47;77.23;98567.16;4979013;28;20062;-69
2022/12/31 03:37:46;;;;;;;18.95;10.32;;;;;;;6.49;76.79;98553.28;4981816;28;20096;-68
2022/12/31 03:40:13;;;;;;;24.20;13.02;;;;;;;6.49;77.05;98559.53;4966618;28;20050;-68
2022/12/31 03:42:39;;;;;;;18.65;10.07;;;;;;;6.48;76.39;98565.25;4967028;28;20448;-68
2022/12/31 03:45:05;;;;;;;20.58;11.20;;;;;;;6.48;76.88;98576.97;4966699;28;20035;-68
2022/12/31 03:47:30;;;;;;;19.38;10.85;;;;;;;6.49;76.33;98577.78;4966723;28;20031;-69
2022/12/31 03:49:56;;;;;;;20.60;11.65;;;;;;;6.51;76.54;98581.88;4966871;28;20027;-68
2022/12/31 03:52:21;;;;;;;17.25;9.80;;;;;;;6.52;76.30;98577.25;4966951;28;20106;-68
2022/12/31 03:54:47;;;;;;;17.40;10.32;;;;;;;6.53;76.70;98576.97;4966646;28;20054;-68
2022/12/31 03:57:12;;;;;;;16.30;10.18;;;;;;;6.53;76.62;98576.97;4969991;28;20057;-69
2022/12/31 03:59:38;;;;;;;15.52;9.73;;;;;;;6.54;76.73;98581.34;4968603;28;20042;-68
2022/12/31 04:02:04;;;;;;;18.17;10.90;;;;;;;6.56;76.31;98586.50;4969671;28;20037;-68
2022/12/31 04:04:30;;;;;;;21.67;11.52;;;;;;;6.56;76.18;98581.06;4970077;28;20448;-68
2022/12/31 04:06:55;;;;;;;21.40;11.70;;;;;;;6.57;76.38;98584.63;4969951;28;20102;-68
2022/12/31 04:09:20;;;;;;;19.00;10.98;;;;;;;6.60;76.73;98590.34;4970115;28;20039;-69
2022/12/31 04:11:46;;;;;;;19.48;12.05;;;;;;;6.60;76.49;98590.34;4968098;28;20109;-69
2022/12/31 04:14:11;;;;;;;21.88;12.38;;;;;;;6.63;76.55;98597.19;4969729;28;20556;-68
2022/12/31 04:16:37;;;;;;;19.95;11.93;;;;;;;6.64;76.46;98594.19;4968178;28;20130;-69
2022/12/31 04:19:02;;;;;;;16.92;10.05;;;;;;;6.65;76.46;98593.09;4970556;28;20027;-68
2022/12/31 04:21:28;;;;;;;15.65;9.55;;;;;;;6.67;76.41;98601.03;4969580;28;20045;-68
2022/12/31 04:23:53;;;;;;;18.23;10.02;;;;;;;6.69;76.50;98593.41;4970030;28;20022;-68
2022/12/31 04:26:19;;;;;;;14.80;8.80;;;;;;;6.70;76.71;98592.31;4969559;28;20084;-69
2022/12/31 04:28:44;;;;;;;17.58;10.68;;;;;;;6.72;76.53;98595.59;4969273;28;20059;-68
2022/12/31 04:31:10;;;;;;;18.05;9.82;;;;;;;6.75;76.45;98605.13;4969576;28;20117;-68
2022/12/31 04:33:35;;;;;;;16.10;9.52;;;;;;;6.75;75.85;98613.31;4969882;28;20019;-68
2022/12/31 04:36:06;;;;;;;21.20;10.57;;;;;;;6.77;76.59;98606.50;4968967;28;20113;-69
2022/12/31 04:38:32;;;;;;;20.23;10.18;;;;;;;6.79;76.35;98615.22;4969111;28;21387;-69
2022/12/31 04:43:43;;;;;;;17.25;9.90;;;;;;;6.85;76.34;98627.78;4970153;28;20143;-69
2022/12/31 04:46:08;;;;;;;16.63;9.68;;;;;;;6.88;76.71;98625.63;4969527;28;20106;-69
2022/12/31 04:48:34;;;;;;;14.55;9.25;;;;;;;6.90;76.30;98627.00;4969257;28;20353;-68
2022/12/31 04:51:00;;;;;;;14.32;8.27;;;;;;;6.93;76.55;98625.63;4969368;28;20042;-69
2022/12/31 04:53:25;;;;;;;14.82;8.43;;;;;;;6.94;76.41;98624.53;4970128;28;20027;-70
2022/12/31 04:55:51;;;;;;;18.13;9.52;;;;;;;6.98;76.84;98626.47;4969159;28;20113;-68
2022/12/31 04:58:17;;;;;;;15.43;9.05;;;;;;;7.02;76.94;98625.91;4966459;28;20034;-68
2022/12/31 05:00:45;;;;;;;16.58;9.50;;;;;;;7.03;76.71;98619.38;4968042;28;20035;-69
2022/12/31 05:03:11;;;;;;;14.38;8.55;;;;;;;7.04;76.78;98616.41;5005575;28;20026;-69
2022/12/31 05:05:41;;;;;;;14.65;8.68;;;;;;;7.05;77.22;98628.94;4970915;28;20054;-68
2022/12/31 05:08:11;;;;;;;14.27;8.57;;;;;;;7.07;76.44;98628.66;4968297;28;20391;-69
2022/12/31 05:10:40;;;;;;;13.38;8.73;;;;;;;7.08;77.46;98617.50;4969696;28;20080;-68
2022/12/31 05:13:06;;;;;;;16.08;9.13;;;;;;;7.10;76.99;98617.22;4969567;28;20031;-68
2022/12/31 05:15:31;;;;;;;13.23;8.15;;;;;;;7.10;76.93;98620.78;4970123;28;20439;-69
2022/12/31 05:17:57;;;;;;;14.77;8.27;;;;;;;7.12;77.19;98618.59;4969983;28;20107;-69
2022/12/31 05:20:22;;;;;;;14.30;7.93;;;;;;;7.12;77.04;98617.78;4969351;28;20037;-69
2022/12/31 05:22:48;;;;;;;14.10;8.07;;;;;;;7.13;77.01;98612.03;4996972;28;20042;-69
2022/12/31 05:25:13;;;;;;;12.73;7.53;;;;;;;7.14;77.42;98621.84;4969921;28;20027;-68
2022/12/31 05:27:39;;;;;;;13.85;8.43;;;;;;;7.15;77.31;98609.84;4967511;28;20034;-68
2022/12/31 05:30:05;;;;;;;15.15;9.20;;;;;;;7.18;77.58;98619.44;4969912;28;20395;-68
2022/12/31 05:32:31;;;;;;;12.85;8.43;;;;;;;7.18;77.40;98626.78;4969553;28;20030;-68
2022/12/31 05:34:58;;;;;;;14.32;8.80;;;;;;;7.20;77.31;98619.16;4968309;28;20041;-68
2022/12/31 05:37:24;;;;;;;12.98;7.93;;;;;;;7.20;77.39;98627.31;4966566;28;20023;-68
2022/12/31 05:39:50;;;;;;;12.57;7.95;;;;;;;7.22;77.67;98622.41;5047828;28;20031;-68
2022/12/31 05:42:15;;;;;;;13.10;7.97;;;;;;;7.22;77.96;98617.81;4994965;28;20026;-68
2022/12/31 05:44:40;;;;;;;12.40;7.68;;;;;;;7.25;77.84;98624.63;4969514;28;20029;-68
2022/12/31 05:47:06;;;;;;;10.80;7.28;;;;;;;7.25;77.99;98619.16;4969285;28;20356;-68
2022/12/31 05:49:31;;;;;;;11.55;7.38;;;;;;;7.25;77.88;98620.00;4969228;28;20027;-68
2022/12/31 05:51:56;;;;;;;12.02;8.02;;;;;;;7.26;77.86;98638.00;4968344;28;20121;-68
2022/12/31 05:54:22;;;;;;;11.15;7.32;;;;;;;7.26;77.22;98640.72;4969264;28;20084;-68
2022/12/31 05:56:47;;;;;;;14.75;8.18;;;;;;;7.27;77.40;98644.25;4969654;28;20529;-68
2022/12/31 05:59:13;;;;;;;12.40;7.88;;;;;;;7.27;77.43;98650.56;4968331;28;20070;-69
2022/12/31 06:01:38;;;;;;;11.82;7.68;;;;;;;7.25;77.30;98649.16;4968639;28;20084;-69
2022/12/31 06:04:03;;;;;;;11.57;7.80;;;;;;;7.25;77.73;98646.44;4969327;28;20122;-69
2022/12/31 06:06:30;;;;;;;13.05;8.32;;;;;;;7.24;77.32;98642.91;4969454;28;20084;-69
2022/12/31 06:08:55;;;;;;;13.40;8.60;;;;;;;7.24;77.66;98650.25;5004070;28;20338;-68
2022/12/31 06:11:21;;;;;;;14.30;9.73;;;;;;;7.22;77.65;98647.81;5057695;28;20028;-68
2022/12/31 06:13:46;;;;;;;14.25;8.35;;;;;;;7.21;77.68;98648.91;4969467;28;20058;-68
2022/12/31 06:16:12;;;;;;;12.02;7.25;;;;;;;7.22;77.53;98649.69;4968841;28;20121;-68
2022/12/31 06:18:37;;;;;;;13.48;8.15;;;;;;;7.22;77.33;98631.44;5001127;28;20473;-68
2022/12/31 06:21:03;;;;;;;14.73;8.95;;;;;;;7.22;77.50;98636.06;5061954;28;20028;-68
2022/12/31 06:23:28;;;;;;;12.23;7.45;;;;;;;7.20;77.30;98641.81;4982299;28;20058;-67
2022/12/31 06:25:54;;;;;;;13.85;8.48;;;;;;;7.19;77.12;98639.31;4966390;28;20039;-68
2022/12/31 06:28:19;;;;;;;12.20;8.23;;;;;;;7.17;77.19;98646.97;4968613;28;20042;-68
2022/12/31 06:30:44;;;;;;;12.60;8.00;;;;;;;7.14;77.22;98646.41;4968729;28;20076;-68
2022/12/31 06:33:10;;;;;;;14.82;10.20;;;;;;;7.13;77.56;98633.84;4967896;28;20498;-69
2022/12/31 06:35:35;;;;;;;15.80;10.32;;;;;;;7.14;77.29;98634.69;4967095;28;20039;-68
2022/12/31 06:38:00;;;;;;;14.57;8.45;;;;;;;7.11;77.30;98648.88;4969141;28;20039;-69
2022/12/31 06:40:26;;;;;;;13.27;8.35;;;;;;;7.14;77.45;98656.50;4966490;28;20493;-69
2022/12/31 06:42:52;;;;;;;13.38;8.63;;;;;;;7.13;76.90;98668.50;4968736;28;20038;-69
2022/12/31 06:45:18;;;;;;;14.32;9.27;;;;;;;7.10;77.26;98667.16;4967948;28;20081;-69
2022/12/31 06:47:43;;;;;;;14.90;9.63;;;;;;;7.07;77.42;98672.31;4968306;28;20034;-68
2022/12/31 06:50:09;;;;;;;14.73;9.00;;;;;;;7.03;77.24;98672.03;4990899;28;20035;-68
2022/12/31 06:52:34;;;;;;;15.70;9.88;;;;;;;6.98;77.13;98681.00;5038040;28;20035;-68
2022/12/31 06:55:00;;;;;;;15.35;9.13;;;;;;;6.96;77.06;98685.91;4968911;28;20043;-68
2022/12/31 06:57:26;;;;;;;19.60;10.80;;;;;;;6.96;77.49;98687.81;4967698;28;20110;-68
2022/12/31 06:59:52;;;;;;;16.95;10.15;;;;;;;6.94;77.56;98679.09;4966671;28;20034;-67
2022/12/31 07:02:42;;;;;;;20.90;11.38;;;;;;;6.91;77.86;98695.97;4968471;28;20096;-68
2022/12/31 07:05:29;;;;;;;18.33;11.27;;;;;;;6.88;77.26;98693.78;4973893;28;20035;-69
2022/12/31 07:08:04;;;;;;;18.70;11.57;;;;;;;6.88;77.88;98701.94;4984613;28;20038;-68
2022/12/31 07:11:00;;;;;;;15.23;9.32;;;;;;;6.86;77.86;98696.78;4967956;28;20039;-69
2022/12/31 07:13:44;;;;;;;22.38;13.88;;;;;;;6.84;77.71;98696.22;4968703;28;20349;-68
2022/12/31 07:16:31;;;;;;;18.80;11.52;;;;;;;6.87;77.79;98697.59;4967718;28;20035;-69
2022/12/31 07:19:15;;;;;;;16.05;10.50;;;;;;;6.87;77.83;98668.44;4969037;28;20355;-68
2022/12/31 07:21:42;;;;;;;16.20;10.48;;;;;;;6.88;77.81;98670.06;4961760;28;20105;-69
2022/12/31 07:24:09;;;;;;;17.23;11.13;;;;;;;6.88;77.89;98680.97;4967097;28;20066;-69
2022/12/31 07:26:43;;;;;;;22.30;14.48;;;;;;;6.92;78.30;98683.97;4966235;28;20093;-68
2022/12/31 07:29:27;;;;;;;17.48;10.73;;;;;;;6.92;78.27;98689.44;4994907;28;20451;-68
2022/12/31 07:32:01;;;;;;;15.52;9.95;;;;;;;6.94;78.13;98695.44;5071613;28;20107;-68
2022/12/31 07:34:32;;;;;;;17.85;10.30;;;;;;;6.97;78.35;98703.91;5072228;28;20032;-68
2022/12/31 07:37:15;;;;;;;21.00;12.68;;;;;;;7.01;78.31;98701.47;5013533;28;20030;-68
2022/12/31 07:39:57;;;;;;;30.42;20.98;;;;;;;7.03;78.38;98695.75;4967894;28;20038;-68
2022/12/31 07:42:31;;;;;;;18.85;13.25;;;;;;;7.08;77.96;98710.22;4967861;28;20490;-69
2022/12/31 07:45:10;;;;;;;16.85;11.27;;;;;;;7.12;78.64;98700.44;4967235;28;20053;-69
2022/12/31 07:47:36;;;;;;;18.42;10.60;;;;;;;7.15;78.36;98688.97;4968683;28;20121;-69
2022/12/31 07:50:01;;;;;;;31.73;16.17;;;;;;;7.19;78.34;98694.72;4970079;28;20098;-68
2022/12/31 07:52:27;;;;;;;20.23;11.60;;;;;;;7.23;78.60;98704.00;4970088;28;20031;-69
2022/12/31 07:54:52;;;;;;;16.42;9.77;;;;;;;7.27;78.27;98702.38;4967247;28;20047;-68
2022/12/31 07:57:20;;;;;;;16.55;10.63;;;;;;;7.32;78.39;98693.38;4969125;28;20042;-69
2022/12/31 07:59:45;;;;;;;16.45;10.32;;;;;;;7.37;78.26;98707.03;4969986;28;20078;-69
2022/12/31 08:02:32;;;;;;;18.10;10.45;;;;;;;7.40;77.93;98705.66;4967188;28;20475;-69
2022/12/31 08:05:12;;;;;;;20.27;11.90;;;;;;;7.44;78.38;98714.97;4970021;28;20068;-69
2022/12/31 08:07:40;;;;;;;21.10;11.15;;;;;;;7.49;77.64;98706.00;4968218;28;20041;-68
2022/12/31 08:10:16;;;;;;;15.88;9.23;;;;;;;7.53;77.96;98688.78;4969814;28;20074;-68
2022/12/31 08:12:44;;;;;;;19.75;10.52;;;;;;;7.57;77.88;98689.06;4968998;28;20034;-69
2022/12/31 08:15:14;;;;;;;17.85;10.40;;;;;;;7.62;77.54;98691.00;4968710;28;20031;-68
2022/12/31 08:17:40;;;;;;;23.15;13.10;;;;;;;7.67;77.75;98680.88;4969727;28;20068;-68
2022/12/31 08:20:06;;;;;;;18.60;10.80;;;;;;;7.72;77.91;98685.56;4968433;28;20035;-69
2022/12/31 08:23:03;;;;;;;23.08;12.98;;;;;;;7.78;77.45;98680.91;4967645;28;20375;-68
2022/12/31 08:25:54;;;;;;;17.08;10.48;;;;;;;7.85;77.79;98671.34;4974397;28;20420;-67
2022/12/31 08:28:48;;;;;;;16.73;10.23;;;;;;;7.89;77.80;98685.28;4968721;28;20062;-67
2022/12/31 08:31:13;;;;;;;14.35;8.93;;;;;;;7.97;77.43;98692.91;5033449;28;20043;-68
2022/12/31 08:33:42;;;;;;;17.27;10.00;;;;;;;8.03;77.40;98691.00;5000170;28;20032;-68
2022/12/31 08:36:10;;;;;;;14.13;9.13;;;;;;;8.08;77.44;98704.66;5020003;28;20144;-68
2022/12/31 08:38:59;;;;;;;16.15;9.60;;;;;;;8.13;77.39;98699.22;5012551;28;20093;-68
2022/12/31 08:41:32;;;;;;;15.35;10.07;;;;;;;8.19;76.63;98713.69;5035487;28;20039;-68
2022/12/31 08:44:06;;;;;;;15.43;9.30;;;;;;;8.19;76.62;98700.81;5019985;28;20510;-69
2022/12/31 08:46:51;;;;;;;15.98;10.15;;;;;;;8.20;77.30;98707.94;5003493;28;20055;-68
2022/12/31 08:49:16;;;;;;;16.83;10.40;;;;;;;8.22;77.51;98698.63;4971203;28;20514;-68
2022/12/31 08:51:42;;;;;;;16.17;10.10;;;;;;;8.23;76.98;98708.47;4968104;28;20109;-69
2022/12/31 08:54:11;;;;;;;17.85;10.45;;;;;;;8.24;76.98;98712.84;4967497;28;20042;-70
2022/12/31 08:57:01;;;;;;;16.92;11.40;;;;;;;8.27;76.93;98720.50;4968029;28;20085;-71
2022/12/31 08:59:54;;;;;;;16.00;9.60;;;;;;;8.31;76.53;98724.31;4966983;28;20030;-70
2022/12/31 09:02:27;;;;;;;16.98;10.05;;;;;;;8.35;77.29;98706.28;4966282;28;20042;-68
2022/12/31 09:04:59;;;;;;;15.57;10.23;;;;;;;8.40;76.89;98709.00;4968313;28;20483;-68
2022/12/31 09:07:34;;;;;;;17.33;10.85;;;;;;;8.44;76.84;98709.25;4971291;28;20039;-68
2022/12/31 09:10:13;;;;;;;14.57;9.23;;;;;;;8.51;77.05;98701.63;4973085;28;20023;-68
2022/12/31 09:12:58;;;;;;;15.80;9.68;;;;;;;8.57;77.17;98703.25;4967923;28;20543;-68
2022/12/31 09:15:39;;;;;;;12.90;7.07;;;;;;;8.66;77.28;98694.50;4968726;28;20062;-68
2022/12/31 09:18:08;;;;;;;12.48;7.40;;;;;;;8.73;76.66;98690.38;5031612;28;20119;-69
2022/12/31 09:20:34;;;;;;;13.38;7.28;;;;;;;8.82;77.17;98695.28;4978534;28;20097;-68
2022/12/31 09:23:03;;;;;;;12.93;8.60;;;;;;;8.90;76.89;98709.19;4968526;28;20027;-68
2022/12/31 09:25:29;;;;;;;11.70;7.70;;;;;;;8.96;76.50;98715.47;4966995;28;20034;-68
2022/12/31 09:28:13;;;;;;;13.35;7.43;;;;;;;9.02;76.90;98719.00;4966994;28;20517;-68
2022/12/31 09:30:54;;;;;;;12.90;8.13;;;;;;;9.08;76.31;98731.56;4972534;28;20172;-70
2022/12/31 09:33:51;;;;;;;16.58;8.45;;;;;;;9.15;76.67;98725.78;5020389;28;20243;-70
2022/12/31 09:36:25;;;;;;;11.63;6.22;;;;;;;9.20;76.21;98726.56;4976571;28;20072;-69
2022/12/31 09:39:14;;;;;;;13.30;8.48;;;;;;;9.25;76.30;98709.31;5032737;28;20040;-68
2022/12/31 09:41:50;;;;;;;38.42;13.57;;;;;;;9.29;76.16;98723.25;4967838;28;20035;-69
2022/12/31 09:44:43;;;;;;;57.08;17.55;;;;;;;9.31;76.13;98721.03;4992501;28;20023;-70
2022/12/31 09:47:36;;;;;;;14.95;7.82;;;;;;;9.33;75.94;98710.63;4984662;28;20054;-70
2022/12/31 09:50:39;;;;;;;13.13;8.13;;;;;;;9.35;75.57;98722.13;5019516;28;20028;-70
2022/12/31 09:53:23;;;;;;;10.13;6.50;;;;;;;9.40;75.47;98719.38;4963684;28;20042;-70
2022/12/31 09:55:58;;;;;;;13.88;7.25;;;;;;;9.41;75.86;98717.44;4965615;28;20452;-70
2022/12/31 09:58:40;;;;;;;14.77;7.18;;;;;;;9.43;75.68;98710.59;4965766;28;20039;-70
2022/12/31 10:01:21;;;;;;;14.05;8.00;;;;;;;9.44;76.14;98704.00;4961960;28;20076;-70
2022/12/31 10:04:45;;;;;;;11.73;6.88;;;;;;;9.48;75.67;98720.69;4965162;28;20406;-70
2022/12/31 10:07:49;;;;;;;11.30;6.95;;;;;;;9.56;75.68;98706.41;4984377;28;20034;-70
2022/12/31 10:10:49;;;;;;;13.85;8.02;;;;;;;9.62;76.49;98710.75;4970234;28;20069;-70
2022/12/31 10:13:39;;;;;;;11.75;7.40;;;;;;;9.67;76.05;98699.75;4969904;28;20461;-70
2022/12/31 10:16:14;;;;;;;10.60;6.53;;;;;;;9.72;76.00;98707.13;4965920;28;20038;-70
2022/12/31 10:19:06;;;;;;;12.60;8.18;;;;;;;9.77;75.61;98709.81;4964741;28;20540;-70
2022/12/31 10:21:38;;;;;;;13.15;7.45;;;;;;;9.87;76.16;98710.84;4965342;28;20035;-71
2022/12/31 10:24:12;;;;;;;11.82;6.88;;;;;;;9.93;75.68;98717.94;4968206;28;20058;-70
2022/12/31 10:26:56;;;;;;;11.07;6.55;;;;;;;9.97;75.16;98713.53;4967238;28;20027;-71
2022/12/31 10:29:30;;;;;;;10.13;5.30;;;;;;;10.03;76.03;98717.03;4975410;28;20052;-70
2022/12/31 10:32:17;;;;;;;9.75;5.47;;;;;;;10.03;75.22;98712.34;5006486;28;20118;-70
2022/12/31 10:35:13;;;;;;;10.77;6.53;;;;;;;10.05;75.05;98703.88;4991631;28;20039;-69
2022/12/31 10:37:46;;;;;;;9.02;6.00;;;;;;;10.06;75.45;98703.56;4973989;28;20049;-70
2022/12/31 10:40:33;;;;;;;8.95;5.80;;;;;;;10.10;75.58;98706.56;4964323;28;20047;-69
2022/12/31 10:42:58;;;;;;;9.05;5.50;;;;;;;10.13;75.33;98706.00;4970458;28;20039;-69
2022/12/31 10:46:01;;;;;;;8.20;5.05;;;;;;;10.13;74.90;98701.31;4967298;28;20510;-69
2022/12/31 10:49:04;;;;;;;8.93;6.05;;;;;;;10.16;74.39;98704.59;4964121;28;20039;-71
2022/12/31 10:51:53;;;;;;;8.38;5.47;;;;;;;10.19;75.03;98699.34;4978698;28;20041;-70
2022/12/31 10:54:46;;;;;;;7.30;4.67;;;;;;;10.24;74.97;98701.25;4973680;28;20633;-70
2022/12/31 10:57:26;;;;;;;8.85;6.45;;;;;;;10.27;74.87;98695.19;4965234;28;20054;-70
2022/12/31 11:00:18;;;;;;;9.15;5.20;;;;;;;10.33;75.14;98685.81;4966610;28;20027;-69
2022/12/31 11:02:47;;;;;;;9.63;6.20;;;;;;;10.40;74.78;98697.25;4972246;28;20058;-70
2022/12/31 11:05:37;;;;;;;6.75;4.60;;;;;;;10.45;74.48;98699.16;5050380;28;20562;-71
2022/12/31 11:08:12;;;;;;;8.50;5.68;;;;;;;10.50;74.14;98701.00;5009920;28;20085;-68
2022/12/31 11:10:37;;;;;;;8.45;5.38;;;;;;;10.54;74.36;98693.84;5070453;28;20438;-69
2022/12/31 11:13:36;;;;;;;9.60;6.22;;;;;;;10.59;74.56;98698.47;4992105;28;20027;-68
2022/12/31 11:16:01;;;;;;;8.43;5.00;;;;;;;10.63;73.80;98703.06;4969441;28;20035;-69
2022/12/31 11:18:46;;;;;;;10.55;5.80;;;;;;;10.63;74.31;98708.56;4969941;28;20019;-69
2022/12/31 11:21:36;;;;;;;7.03;5.10;;;;;;;10.67;73.49;98706.03;4965746;28;20035;-69
2022/12/31 11:24:43;;;;;;;7.93;5.63;;;;;;;10.65;73.85;98706.34;4969060;28;20047;-69
2022/12/31 11:27:39;;;;;;;8.10;6.07;;;;;;;10.64;73.26;98701.13;5000059;28;20095;-69
2022/12/31 11:30:26;;;;;;;9.15;6.50;;;;;;;10.65;73.78;98706.34;4967866;28;20034;-69
2022/12/31 11:33:07;;;;;;;11.77;8.07;;;;;;;10.68;73.40;98677.50;4968983;28;20027;-69
2022/12/31 11:35:59;;;;;;;10.23;6.78;;;;;;;10.69;74.14;98690.13;4965974;28;20039;-69
2022/12/31 11:38:29;;;;;;;9.52;6.22;;;;;;;10.71;73.52;98676.94;4967895;28;20110;-68
2022/12/31 11:41:31;;;;;;;10.23;6.93;;;;;;;10.68;73.35;98681.09;4968876;28;20031;-69
2022/12/31 11:44:24;;;;;;;13.80;8.43;;;;;;;10.71;73.28;98686.00;4969003;28;20043;-68
2022/12/31 11:47:28;;;;;;;12.48;8.10;;;;;;;10.72;73.38;98695.03;4969123;28;20027;-70
2022/12/31 11:50:11;;;;;;;14.15;10.10;;;;;;;10.77;73.21;98694.16;4988373;28;20026;-69
2022/12/31 11:53:14;;;;;;;10.77;7.22;;;;;;;10.76;72.82;98673.31;4988879;28;20042;-69
2022/12/31 11:55:55;;;;;;;10.88;8.82;;;;;;;10.79;72.95;98680.97;4973063;28;20070;-69
2022/12/31 11:58:27;;;;;;;11.48;7.93;;;;;;;10.79;72.44;98673.53;4970238;28;20031;-69
2022/12/31 12:01:03;;;;;;;11.73;8.05;;;;;;;10.80;72.34;98677.13;4964526;28;20096;-68
2022/12/31 12:03:30;;;;;;;10.38;7.18;;;;;;;10.80;72.79;98679.88;4965550;28;20038;-69
2022/12/31 12:05:57;;;;;;;9.73;6.53;;;;;;;10.80;72.94;98672.44;4969074;28;20026;-69
2022/12/31 12:08:25;;;;;;;8.25;5.63;;;;;;;10.79;72.30;98667.25;4969299;28;20025;-69
2022/12/31 12:10:54;;;;;;;9.68;6.72;;;;;;;10.78;72.05;98671.91;4966714;28;20026;-68